sensor_id;sensor_type;location;lat;lon;timestamp;P1;durP1;ratioP1;P2;durP2;ratioP2
66402;SDS011;53212;52.112;5.144;2023-07-31T00:00:05;2.80;;;2.00;;
66402;SDS011;53212;52.112;5.144;2023-07-31T00:02:31;2.50;;;1.70;;
66402;SDS011;53212;52.112;5.144;2023-07-31T00:04:56;2.70;;;2.10;;
66402;SDS011;53212;52.112;5.144;2023-07-31T00:07:22;3.30;;;2.70;;
66402;SDS011;53212;52.112;5.144;2023-07-31T00:09:47;4.30;;;3.10;;
66402;SDS011;53212;52.112;5.144;2023-07-31T00:12:13;6.90;;;3.50;;
66402;SDS011;53212;52.112;5.144;2023-07-31T00:14:38;9.20;;;3.60;;
66402;SDS011;53212;52.112;5.144;2023-07-31T00:17:04;12.60;;;5.40;;
66402;SDS011;53212;52.112;5.144;2023-07-31T00:19:30;13.50;;;5.20;;
66402;SDS011;53212;52.112;5.144;2023-07-31T00:21:55;13.80;;;5.90;;
66402;SDS011;53212;52.112;5.144;2023-07-31T00:24:21;21.30;;;6.60;;
66402;SDS011;53212;52.112;5.144;2023-07-31T00:26:46;12.60;;;6.10;;
66402;SDS011;53212;52.112;5.144;2023-07-31T00:29:11;17.30;;;7.00;;
66402;SDS011;53212;52.112;5.144;2023-07-31T00:31:37;20.50;;;7.20;;
66402;SDS011;53212;52.112;5.144;2023-07-31T00:34:02;26.30;;;7.50;;
66402;SDS011;53212;52.112;5.144;2023-07-31T00:36:28;18.30;;;7.30;;
66402;SDS011;53212;52.112;5.144;2023-07-31T00:38:53;25.80;;;7.80;;
66402;SDS011;53212;52.112;5.144;2023-07-31T00:41:18;19.50;;;8.40;;
66402;SDS011;53212;52.112;5.144;2023-07-31T00:43:44;22.90;;;7.80;;
66402;SDS011;53212;52.112;5.144;2023-07-31T00:46:09;16.90;;;7.40;;
66402;SDS011;53212;52.112;5.144;2023-07-31T00:48:35;17.20;;;6.70;;
66402;SDS011;53212;52.112;5.144;2023-07-31T00:51:02;12.30;;;5.90;;
66402;SDS011;53212;52.112;5.144;2023-07-31T00:53:28;17.80;;;6.80;;
66402;SDS011;53212;52.112;5.144;2023-07-31T00:55:53;14.20;;;6.30;;
66402;SDS011;53212;52.112;5.144;2023-07-31T00:58:19;15.80;;;6.10;;
66402;SDS011;53212;52.112;5.144;2023-07-31T01:00:44;10.20;;;4.60;;
66402;SDS011;53212;52.112;5.144;2023-07-31T01:03:10;5.30;;;2.80;;
66402;SDS011;53212;52.112;5.144;2023-07-31T01:05:43;5.50;;;3.20;;
66402;SDS011;53212;52.112;5.144;2023-07-31T01:08:32;6.40;;;3.00;;
66402;SDS011;53212;52.112;5.144;2023-07-31T01:11:29;11.90;;;4.60;;
66402;SDS011;53212;52.112;5.144;2023-07-31T01:13:58;13.50;;;5.40;;
66402;SDS011;53212;52.112;5.144;2023-07-31T01:16:25;17.90;;;6.50;;
66402;SDS011;53212;52.112;5.144;2023-07-31T01:18:52;17.20;;;7.10;;
66402;SDS011;53212;52.112;5.144;2023-07-31T01:21:33;16.50;;;6.00;;
66402;SDS011;53212;52.112;5.144;2023-07-31T01:24:21;14.60;;;6.00;;
66402;SDS011;53212;52.112;5.144;2023-07-31T01:27:04;16.00;;;6.00;;
66402;SDS011;53212;52.112;5.144;2023-07-31T01:29:49;15.00;;;6.20;;
66402;SDS011;53212;52.112;5.144;2023-07-31T01:32:29;14.30;;;5.90;;
66402;SDS011;53212;52.112;5.144;2023-07-31T01:34:55;17.60;;;6.20;;
66402;SDS011;53212;52.112;5.144;2023-07-31T01:37:28;16.30;;;6.70;;
66402;SDS011;53212;52.112;5.144;2023-07-31T01:39:55;18.70;;;6.50;;
66402;SDS011;53212;52.112;5.144;2023-07-31T01:42:20;17.40;;;7.10;;
66402;SDS011;53212;52.112;5.144;2023-07-31T01:44:46;17.00;;;6.30;;
66402;SDS011;53212;52.112;5.144;2023-07-31T01:47:11;16.20;;;7.00;;
66402;SDS011;53212;52.112;5.144;2023-07-31T01:49:37;19.70;;;7.10;;
66402;SDS011;53212;52.112;5.144;2023-07-31T01:52:02;13.00;;;5.90;;
66402;SDS011;53212;52.112;5.144;2023-07-31T01:54:28;15.50;;;5.70;;
66402;SDS011;53212;52.112;5.144;2023-07-31T01:56:53;17.20;;;7.00;;
66402;SDS011;53212;52.112;5.144;2023-07-31T01:59:19;11.00;;;5.20;;
66402;SDS011;53212;52.112;5.144;2023-07-31T02:01:44;13.30;;;5.60;;
66402;SDS011;53212;52.112;5.144;2023-07-31T02:04:10;12.60;;;4.80;;
66402;SDS011;53212;52.112;5.144;2023-07-31T02:06:35;9.70;;;5.40;;
66402;SDS011;53212;52.112;5.144;2023-07-31T02:09:00;12.20;;;5.40;;
66402;SDS011;53212;52.112;5.144;2023-07-31T02:11:26;12.30;;;6.00;;
66402;SDS011;53212;52.112;5.144;2023-07-31T02:13:51;13.20;;;5.30;;
66402;SDS011;53212;52.112;5.144;2023-07-31T02:16:17;13.90;;;5.20;;
66402;SDS011;53212;52.112;5.144;2023-07-31T02:18:42;12.60;;;5.40;;
66402;SDS011;53212;52.112;5.144;2023-07-31T02:21:07;18.30;;;5.90;;
66402;SDS011;53212;52.112;5.144;2023-07-31T02:23:33;15.40;;;6.00;;
66402;SDS011;53212;52.112;5.144;2023-07-31T02:25:58;15.90;;;5.90;;
66402;SDS011;53212;52.112;5.144;2023-07-31T02:28:24;14.70;;;5.70;;
66402;SDS011;53212;52.112;5.144;2023-07-31T02:30:50;17.10;;;6.00;;
66402;SDS011;53212;52.112;5.144;2023-07-31T02:33:17;11.60;;;4.80;;
66402;SDS011;53212;52.112;5.144;2023-07-31T02:35:42;14.40;;;6.20;;
66402;SDS011;53212;52.112;5.144;2023-07-31T02:38:08;14.60;;;5.70;;
66402;SDS011;53212;52.112;5.144;2023-07-31T02:40:33;13.30;;;5.80;;
66402;SDS011;53212;52.112;5.144;2023-07-31T02:42:59;16.10;;;6.00;;
66402;SDS011;53212;52.112;5.144;2023-07-31T02:45:24;16.50;;;6.40;;
66402;SDS011;53212;52.112;5.144;2023-07-31T02:47:49;22.70;;;7.00;;
66402;SDS011;53212;52.112;5.144;2023-07-31T02:50:15;18.40;;;6.10;;
66402;SDS011;53212;52.112;5.144;2023-07-31T02:52:40;14.80;;;6.80;;
66402;SDS011;53212;52.112;5.144;2023-07-31T02:55:06;14.10;;;6.60;;
66402;SDS011;53212;52.112;5.144;2023-07-31T02:57:32;18.40;;;6.60;;
66402;SDS011;53212;52.112;5.144;2023-07-31T02:59:57;18.40;;;6.70;;
66402;SDS011;53212;52.112;5.144;2023-07-31T03:02:23;23.70;;;7.40;;
66402;SDS011;53212;52.112;5.144;2023-07-31T03:04:48;20.20;;;7.20;;
66402;SDS011;53212;52.112;5.144;2023-07-31T03:07:14;18.30;;;7.30;;
66402;SDS011;53212;52.112;5.144;2023-07-31T03:09:39;20.40;;;7.20;;
66402;SDS011;53212;52.112;5.144;2023-07-31T03:12:05;17.90;;;7.30;;
66402;SDS011;53212;52.112;5.144;2023-07-31T03:14:31;20.70;;;7.30;;
66402;SDS011;53212;52.112;5.144;2023-07-31T03:16:56;23.50;;;6.90;;
66402;SDS011;53212;52.112;5.144;2023-07-31T03:19:21;18.60;;;6.30;;
66402;SDS011;53212;52.112;5.144;2023-07-31T03:21:47;17.70;;;6.70;;
66402;SDS011;53212;52.112;5.144;2023-07-31T03:24:12;15.50;;;6.60;;
66402;SDS011;53212;52.112;5.144;2023-07-31T03:26:38;19.90;;;7.00;;
66402;SDS011;53212;52.112;5.144;2023-07-31T03:29:06;12.80;;;5.40;;
66402;SDS011;53212;52.112;5.144;2023-07-31T03:31:32;18.00;;;6.50;;
66402;SDS011;53212;52.112;5.144;2023-07-31T03:33:57;16.20;;;7.10;;
66402;SDS011;53212;52.112;5.144;2023-07-31T03:36:23;18.20;;;6.90;;
66402;SDS011;53212;52.112;5.144;2023-07-31T03:38:48;18.90;;;8.10;;
66402;SDS011;53212;52.112;5.144;2023-07-31T03:41:13;19.50;;;7.00;;
66402;SDS011;53212;52.112;5.144;2023-07-31T03:43:39;16.10;;;6.40;;
66402;SDS011;53212;52.112;5.144;2023-07-31T03:46:04;16.70;;;6.50;;
66402;SDS011;53212;52.112;5.144;2023-07-31T03:48:30;20.60;;;6.70;;
66402;SDS011;53212;52.112;5.144;2023-07-31T03:50:55;12.40;;;5.60;;
66402;SDS011;53212;52.112;5.144;2023-07-31T03:53:21;19.90;;;6.70;;
66402;SDS011;53212;52.112;5.144;2023-07-31T03:55:46;19.50;;;7.10;;
66402;SDS011;53212;52.112;5.144;2023-07-31T03:58:12;14.70;;;6.50;;
66402;SDS011;53212;52.112;5.144;2023-07-31T04:00:37;20.10;;;7.50;;
66402;SDS011;53212;52.112;5.144;2023-07-31T04:03:04;18.20;;;7.00;;
66402;SDS011;53212;52.112;5.144;2023-07-31T04:05:31;17.40;;;6.40;;
66402;SDS011;53212;52.112;5.144;2023-07-31T04:07:58;15.70;;;6.20;;
66402;SDS011;53212;52.112;5.144;2023-07-31T04:10:23;17.90;;;6.90;;
66402;SDS011;53212;52.112;5.144;2023-07-31T04:12:48;14.80;;;6.80;;
66402;SDS011;53212;52.112;5.144;2023-07-31T04:15:14;16.90;;;7.40;;
66402;SDS011;53212;52.112;5.144;2023-07-31T04:17:39;14.20;;;6.20;;
66402;SDS011;53212;52.112;5.144;2023-07-31T04:20:05;18.30;;;6.50;;
66402;SDS011;53212;52.112;5.144;2023-07-31T04:22:31;14.10;;;6.30;;
66402;SDS011;53212;52.112;5.144;2023-07-31T04:24:56;13.60;;;6.60;;
66402;SDS011;53212;52.112;5.144;2023-07-31T04:27:22;15.70;;;6.70;;
66402;SDS011;53212;52.112;5.144;2023-07-31T04:29:47;13.50;;;6.20;;
66402;SDS011;53212;52.112;5.144;2023-07-31T04:32:13;11.30;;;5.60;;
66402;SDS011;53212;52.112;5.144;2023-07-31T04:34:40;14.90;;;5.80;;
66402;SDS011;53212;52.112;5.144;2023-07-31T04:37:06;12.90;;;5.90;;
66402;SDS011;53212;52.112;5.144;2023-07-31T04:39:31;16.20;;;6.10;;
66402;SDS011;53212;52.112;5.144;2023-07-31T04:41:57;16.40;;;6.10;;
66402;SDS011;53212;52.112;5.144;2023-07-31T04:44:22;12.40;;;5.70;;
66402;SDS011;53212;52.112;5.144;2023-07-31T04:46:48;16.50;;;6.10;;
66402;SDS011;53212;52.112;5.144;2023-07-31T04:49:13;12.40;;;6.10;;
66402;SDS011;53212;52.112;5.144;2023-07-31T04:51:38;12.40;;;5.70;;
66402;SDS011;53212;52.112;5.144;2023-07-31T04:54:04;10.10;;;5.50;;
66402;SDS011;53212;52.112;5.144;2023-07-31T04:56:29;11.10;;;5.10;;
66402;SDS011;53212;52.112;5.144;2023-07-31T04:58:55;10.10;;;5.10;;
66402;SDS011;53212;52.112;5.144;2023-07-31T05:01:20;9.00;;;4.50;;
66402;SDS011;53212;52.112;5.144;2023-07-31T05:03:46;11.40;;;5.20;;
66402;SDS011;53212;52.112;5.144;2023-07-31T05:06:11;9.60;;;4.60;;
66402;SDS011;53212;52.112;5.144;2023-07-31T05:08:38;9.70;;;4.50;;
66402;SDS011;53212;52.112;5.144;2023-07-31T05:11:04;9.90;;;4.60;;
66402;SDS011;53212;52.112;5.144;2023-07-31T05:13:29;7.10;;;4.20;;
66402;SDS011;53212;52.112;5.144;2023-07-31T05:15:54;8.70;;;4.60;;
66402;SDS011;53212;52.112;5.144;2023-07-31T05:18:20;7.90;;;4.30;;
66402;SDS011;53212;52.112;5.144;2023-07-31T05:20:45;10.70;;;4.00;;
66402;SDS011;53212;52.112;5.144;2023-07-31T05:23:11;5.30;;;3.50;;
66402;SDS011;53212;52.112;5.144;2023-07-31T05:25:36;5.30;;;3.90;;
66402;SDS011;53212;52.112;5.144;2023-07-31T05:28:01;4.90;;;3.10;;
66402;SDS011;53212;52.112;5.144;2023-07-31T05:30:29;4.80;;;3.20;;
66402;SDS011;53212;52.112;5.144;2023-07-31T05:32:55;4.90;;;3.50;;
66402;SDS011;53212;52.112;5.144;2023-07-31T05:35:21;6.30;;;3.60;;
66402;SDS011;53212;52.112;5.144;2023-07-31T05:37:46;5.80;;;3.20;;
66402;SDS011;53212;52.112;5.144;2023-07-31T05:40:12;4.60;;;3.30;;
66402;SDS011;53212;52.112;5.144;2023-07-31T05:42:37;5.10;;;3.00;;
66402;SDS011;53212;52.112;5.144;2023-07-31T05:45:05;5.20;;;3.30;;
66402;SDS011;53212;52.112;5.144;2023-07-31T05:47:31;5.40;;;3.60;;
66402;SDS011;53212;52.112;5.144;2023-07-31T05:49:57;4.90;;;3.50;;
66402;SDS011;53212;52.112;5.144;2023-07-31T05:52:22;9.20;;;3.80;;
66402;SDS011;53212;52.112;5.144;2023-07-31T05:54:48;4.30;;;3.40;;
66402;SDS011;53212;52.112;5.144;2023-07-31T05:57:13;7.30;;;3.90;;
66402;SDS011;53212;52.112;5.144;2023-07-31T05:59:39;5.60;;;3.20;;
66402;SDS011;53212;52.112;5.144;2023-07-31T06:02:04;8.80;;;3.80;;
66402;SDS011;53212;52.112;5.144;2023-07-31T06:04:30;6.30;;;3.90;;
66402;SDS011;53212;52.112;5.144;2023-07-31T06:06:56;5.40;;;3.10;;
66402;SDS011;53212;52.112;5.144;2023-07-31T06:09:21;6.80;;;3.50;;
66402;SDS011;53212;52.112;5.144;2023-07-31T06:11:47;4.70;;;2.80;;
66402;SDS011;53212;52.112;5.144;2023-07-31T06:14:12;9.20;;;3.00;;
66402;SDS011;53212;52.112;5.144;2023-07-31T06:16:38;5.30;;;2.80;;
66402;SDS011;53212;52.112;5.144;2023-07-31T06:19:03;4.60;;;2.60;;
66402;SDS011;53212;52.112;5.144;2023-07-31T06:21:29;5.00;;;2.50;;
66402;SDS011;53212;52.112;5.144;2023-07-31T06:23:55;4.30;;;2.80;;
66402;SDS011;53212;52.112;5.144;2023-07-31T06:26:20;6.30;;;2.80;;
66402;SDS011;53212;52.112;5.144;2023-07-31T06:28:46;4.10;;;2.80;;
66402;SDS011;53212;52.112;5.144;2023-07-31T06:31:11;4.30;;;2.80;;
66402;SDS011;53212;52.112;5.144;2023-07-31T06:33:37;5.20;;;2.80;;
66402;SDS011;53212;52.112;5.144;2023-07-31T06:36:02;3.70;;;2.40;;
66402;SDS011;53212;52.112;5.144;2023-07-31T06:38:28;3.40;;;2.40;;
66402;SDS011;53212;52.112;5.144;2023-07-31T06:40:54;3.60;;;2.50;;
66402;SDS011;53212;52.112;5.144;2023-07-31T06:43:19;3.50;;;2.20;;
66402;SDS011;53212;52.112;5.144;2023-07-31T06:45:45;3.20;;;2.40;;
66402;SDS011;53212;52.112;5.144;2023-07-31T06:48:11;3.60;;;2.30;;
66402;SDS011;53212;52.112;5.144;2023-07-31T06:50:36;3.20;;;2.30;;
66402;SDS011;53212;52.112;5.144;2023-07-31T06:53:02;3.10;;;2.50;;
66402;SDS011;53212;52.112;5.144;2023-07-31T06:55:27;3.80;;;2.50;;
66402;SDS011;53212;52.112;5.144;2023-07-31T06:57:55;3.90;;;2.40;;
66402;SDS011;53212;52.112;5.144;2023-07-31T07:00:22;3.30;;;2.30;;
66402;SDS011;53212;52.112;5.144;2023-07-31T07:02:48;4.70;;;2.50;;
66402;SDS011;53212;52.112;5.144;2023-07-31T07:05:15;3.50;;;2.20;;
66402;SDS011;53212;52.112;5.144;2023-07-31T07:07:42;4.30;;;2.40;;
66402;SDS011;53212;52.112;5.144;2023-07-31T07:10:08;2.90;;;1.90;;
66402;SDS011;53212;52.112;5.144;2023-07-31T07:12:34;2.60;;;1.90;;
66402;SDS011;53212;52.112;5.144;2023-07-31T07:15:01;5.40;;;2.40;;
66402;SDS011;53212;52.112;5.144;2023-07-31T07:17:27;2.90;;;1.90;;
66402;SDS011;53212;52.112;5.144;2023-07-31T07:19:56;2.50;;;1.80;;
66402;SDS011;53212;52.112;5.144;2023-07-31T07:22:22;4.20;;;2.00;;
66402;SDS011;53212;52.112;5.144;2023-07-31T07:24:48;3.30;;;1.90;;
66402;SDS011;53212;52.112;5.144;2023-07-31T07:27:13;2.20;;;2.00;;
66402;SDS011;53212;52.112;5.144;2023-07-31T07:29:38;2.20;;;1.90;;
66402;SDS011;53212;52.112;5.144;2023-07-31T07:32:04;2.20;;;2.00;;
66402;SDS011;53212;52.112;5.144;2023-07-31T07:34:30;1.80;;;1.50;;
66402;SDS011;53212;52.112;5.144;2023-07-31T07:36:56;1.70;;;1.60;;
66402;SDS011;53212;52.112;5.144;2023-07-31T07:39:21;2.80;;;1.70;;
66402;SDS011;53212;52.112;5.144;2023-07-31T07:41:47;3.30;;;1.90;;
66402;SDS011;53212;52.112;5.144;2023-07-31T07:44:13;2.70;;;1.70;;
66402;SDS011;53212;52.112;5.144;2023-07-31T07:46:39;1.40;;;1.30;;
66402;SDS011;53212;52.112;5.144;2023-07-31T07:49:05;1.70;;;1.40;;
66402;SDS011;53212;52.112;5.144;2023-07-31T07:51:30;1.70;;;1.60;;
66402;SDS011;53212;52.112;5.144;2023-07-31T07:53:57;1.60;;;1.40;;
66402;SDS011;53212;52.112;5.144;2023-07-31T07:56:25;1.70;;;1.20;;
66402;SDS011;53212;52.112;5.144;2023-07-31T07:58:51;1.50;;;1.40;;
66402;SDS011;53212;52.112;5.144;2023-07-31T08:01:16;1.10;;;1.00;;
66402;SDS011;53212;52.112;5.144;2023-07-31T08:03:42;1.20;;;1.00;;
66402;SDS011;53212;52.112;5.144;2023-07-31T08:06:08;1.70;;;1.20;;
66402;SDS011;53212;52.112;5.144;2023-07-31T08:08:35;1.30;;;1.20;;
66402;SDS011;53212;52.112;5.144;2023-07-31T08:11:01;1.20;;;1.10;;
66402;SDS011;53212;52.112;5.144;2023-07-31T08:13:27;3.20;;;1.10;;
66402;SDS011;53212;52.112;5.144;2023-07-31T08:15:52;1.10;;;1.00;;
66402;SDS011;53212;52.112;5.144;2023-07-31T08:18:17;1.10;;;1.00;;
66402;SDS011;53212;52.112;5.144;2023-07-31T08:20:44;1.00;;;0.90;;
66402;SDS011;53212;52.112;5.144;2023-07-31T08:23:09;0.80;;;0.80;;
66402;SDS011;53212;52.112;5.144;2023-07-31T08:25:35;1.10;;;1.00;;
66402;SDS011;53212;52.112;5.144;2023-07-31T08:28:02;3.10;;;0.80;;
66402;SDS011;53212;52.112;5.144;2023-07-31T08:30:28;0.90;;;0.70;;
66402;SDS011;53212;52.112;5.144;2023-07-31T08:32:54;0.90;;;0.80;;
66402;SDS011;53212;52.112;5.144;2023-07-31T08:35:19;0.80;;;0.80;;
66402;SDS011;53212;52.112;5.144;2023-07-31T08:37:45;1.10;;;0.90;;
66402;SDS011;53212;52.112;5.144;2023-07-31T08:40:10;0.70;;;0.70;;
66402;SDS011;53212;52.112;5.144;2023-07-31T08:42:46;1.00;;;0.90;;
66402;SDS011;53212;52.112;5.144;2023-07-31T08:45:19;1.00;;;0.90;;
66402;SDS011;53212;52.112;5.144;2023-07-31T08:47:50;0.90;;;0.90;;
66402;SDS011;53212;52.112;5.144;2023-07-31T08:50:18;0.90;;;0.90;;
66402;SDS011;53212;52.112;5.144;2023-07-31T08:52:46;1.20;;;0.90;;
66402;SDS011;53212;52.112;5.144;2023-07-31T08:55:13;0.80;;;0.80;;
66402;SDS011;53212;52.112;5.144;2023-07-31T08:57:39;0.90;;;0.80;;
66402;SDS011;53212;52.112;5.144;2023-07-31T09:00:08;1.00;;;0.80;;
66402;SDS011;53212;52.112;5.144;2023-07-31T09:02:37;0.80;;;0.80;;
66402;SDS011;53212;52.112;5.144;2023-07-31T09:05:10;1.10;;;0.90;;
66402;SDS011;53212;52.112;5.144;2023-07-31T09:07:36;0.90;;;0.90;;
66402;SDS011;53212;52.112;5.144;2023-07-31T09:10:03;1.10;;;1.10;;
66402;SDS011;53212;52.112;5.144;2023-07-31T09:12:30;0.80;;;0.80;;
66402;SDS011;53212;52.112;5.144;2023-07-31T09:14:56;0.80;;;0.80;;
66402;SDS011;53212;52.112;5.144;2023-07-31T09:17:33;0.90;;;0.90;;
66402;SDS011;53212;52.112;5.144;2023-07-31T09:20:17;1.10;;;1.00;;
66402;SDS011;53212;52.112;5.144;2023-07-31T09:22:45;0.60;;;0.60;;
66402;SDS011;53212;52.112;5.144;2023-07-31T09:25:15;0.80;;;0.80;;
66402;SDS011;53212;52.112;5.144;2023-07-31T09:28:07;0.90;;;0.80;;
66402;SDS011;53212;52.112;5.144;2023-07-31T09:30:50;0.80;;;0.80;;
66402;SDS011;53212;52.112;5.144;2023-07-31T09:33:17;0.80;;;0.80;;
66402;SDS011;53212;52.112;5.144;2023-07-31T09:35:44;0.70;;;0.70;;
66402;SDS011;53212;52.112;5.144;2023-07-31T09:38:11;0.80;;;0.80;;
66402;SDS011;53212;52.112;5.144;2023-07-31T09:40:40;1.10;;;0.80;;
66402;SDS011;53212;52.112;5.144;2023-07-31T09:43:09;0.70;;;0.70;;
66402;SDS011;53212;52.112;5.144;2023-07-31T09:45:37;1.00;;;0.90;;
66402;SDS011;53212;52.112;5.144;2023-07-31T09:50:38;1.00;;;0.60;;
66402;SDS011;53212;52.112;5.144;2023-07-31T09:53:08;0.90;;;0.80;;
66402;SDS011;53212;52.112;5.144;2023-07-31T09:55:35;1.10;;;0.80;;
66402;SDS011;53212;52.112;5.144;2023-07-31T09:58:09;0.60;;;0.60;;
66402;SDS011;53212;52.112;5.144;2023-07-31T10:00:36;0.70;;;0.70;;
66402;SDS011;53212;52.112;5.144;2023-07-31T10:03:08;1.20;;;0.90;;
66402;SDS011;53212;52.112;5.144;2023-07-31T10:05:42;1.40;;;1.10;;
66402;SDS011;53212;52.112;5.144;2023-07-31T10:08:14;1.20;;;1.10;;
66402;SDS011;53212;52.112;5.144;2023-07-31T10:10:45;1.10;;;1.00;;
66402;SDS011;53212;52.112;5.144;2023-07-31T10:13:11;2.10;;;1.20;;
66402;SDS011;53212;52.112;5.144;2023-07-31T10:15:38;1.10;;;0.90;;
66402;SDS011;53212;52.112;5.144;2023-07-31T10:18:05;1.90;;;1.30;;
66402;SDS011;53212;52.112;5.144;2023-07-31T10:20:32;2.90;;;1.40;;
66402;SDS011;53212;52.112;5.144;2023-07-31T10:22:57;1.80;;;1.50;;
66402;SDS011;53212;52.112;5.144;2023-07-31T10:25:24;2.20;;;1.70;;
66402;SDS011;53212;52.112;5.144;2023-07-31T10:27:51;1.80;;;1.70;;
66402;SDS011;53212;52.112;5.144;2023-07-31T10:30:20;2.60;;;1.90;;
66402;SDS011;53212;52.112;5.144;2023-07-31T10:32:49;2.10;;;1.90;;
66402;SDS011;53212;52.112;5.144;2023-07-31T10:35:17;2.30;;;2.10;;
66402;SDS011;53212;52.112;5.144;2023-07-31T10:37:43;2.60;;;2.10;;
66402;SDS011;53212;52.112;5.144;2023-07-31T10:40:15;2.20;;;2.00;;
66402;SDS011;53212;52.112;5.144;2023-07-31T10:42:53;2.80;;;1.90;;
66402;SDS011;53212;52.112;5.144;2023-07-31T10:45:39;2.10;;;1.90;;
66402;SDS011;53212;52.112;5.144;2023-07-31T10:53:40;2.30;;;2.10;;
66402;SDS011;53212;52.112;5.144;2023-07-31T10:56:09;1.80;;;1.70;;
66402;SDS011;53212;52.112;5.144;2023-07-31T10:58:38;1.90;;;1.60;;
66402;SDS011;53212;52.112;5.144;2023-07-31T11:01:05;1.70;;;1.60;;
66402;SDS011;53212;52.112;5.144;2023-07-31T11:03:48;1.80;;;1.60;;
66402;SDS011;53212;52.112;5.144;2023-07-31T11:06:17;1.20;;;1.20;;
66402;SDS011;53212;52.112;5.144;2023-07-31T11:08:44;1.20;;;1.10;;
66402;SDS011;53212;52.112;5.144;2023-07-31T11:11:13;1.40;;;1.30;;
66402;SDS011;53212;52.112;5.144;2023-07-31T11:13:47;1.30;;;1.20;;
66402;SDS011;53212;52.112;5.144;2023-07-31T11:16:15;1.80;;;1.40;;
66402;SDS011;53212;52.112;5.144;2023-07-31T11:18:43;1.90;;;1.30;;
66402;SDS011;53212;52.112;5.144;2023-07-31T11:21:14;1.60;;;1.50;;
66402;SDS011;53212;52.112;5.144;2023-07-31T11:23:41;1.80;;;1.50;;
66402;SDS011;53212;52.112;5.144;2023-07-31T11:26:11;2.60;;;1.50;;
66402;SDS011;53212;52.112;5.144;2023-07-31T11:28:37;2.40;;;1.50;;
66402;SDS011;53212;52.112;5.144;2023-07-31T11:31:03;2.50;;;1.60;;
66402;SDS011;53212;52.112;5.144;2023-07-31T11:33:30;3.10;;;1.30;;
66402;SDS011;53212;52.112;5.144;2023-07-31T11:35:55;2.20;;;1.70;;
66402;SDS011;53212;52.112;5.144;2023-07-31T11:38:25;1.80;;;1.60;;
66402;SDS011;53212;52.112;5.144;2023-07-31T11:40:59;2.40;;;1.80;;
66402;SDS011;53212;52.112;5.144;2023-07-31T11:43:28;1.70;;;1.60;;
66402;SDS011;53212;52.112;5.144;2023-07-31T11:45:57;1.80;;;1.70;;
66402;SDS011;53212;52.112;5.144;2023-07-31T11:48:34;1.90;;;1.80;;
66402;SDS011;53212;52.112;5.144;2023-07-31T11:51:08;2.50;;;2.20;;
66402;SDS011;53212;52.112;5.144;2023-07-31T11:53:52;3.30;;;2.40;;
66402;SDS011;53212;52.112;5.144;2023-07-31T11:56:21;3.80;;;3.10;;
66402;SDS011;53212;52.112;5.144;2023-07-31T11:58:51;3.30;;;2.20;;
66402;SDS011;53212;52.112;5.144;2023-07-31T12:01:20;3.40;;;3.00;;
66402;SDS011;53212;52.112;5.144;2023-07-31T12:03:47;2.90;;;2.60;;
66402;SDS011;53212;52.112;5.144;2023-07-31T12:06:13;2.80;;;2.60;;
66402;SDS011;53212;52.112;5.144;2023-07-31T12:08:38;3.00;;;2.70;;
66402;SDS011;53212;52.112;5.144;2023-07-31T12:11:05;2.40;;;2.20;;
66402;SDS011;53212;52.112;5.144;2023-07-31T12:13:34;3.60;;;2.40;;
66402;SDS011;53212;52.112;5.144;2023-07-31T12:16:01;2.30;;;2.10;;
66402;SDS011;53212;52.112;5.144;2023-07-31T12:18:29;2.40;;;2.10;;
66402;SDS011;53212;52.112;5.144;2023-07-31T12:21:00;2.70;;;2.50;;
66402;SDS011;53212;52.112;5.144;2023-07-31T12:23:33;2.00;;;1.90;;
66402;SDS011;53212;52.112;5.144;2023-07-31T12:26:07;2.70;;;2.10;;
66402;SDS011;53212;52.112;5.144;2023-07-31T12:28:40;2.60;;;2.10;;
66402;SDS011;53212;52.112;5.144;2023-07-31T12:31:09;2.00;;;1.80;;
66402;SDS011;53212;52.112;5.144;2023-07-31T12:33:38;2.30;;;2.20;;
66402;SDS011;53212;52.112;5.144;2023-07-31T12:36:09;2.50;;;1.90;;
66402;SDS011;53212;52.112;5.144;2023-07-31T12:38:36;2.20;;;2.00;;
66402;SDS011;53212;52.112;5.144;2023-07-31T12:41:02;3.90;;;2.20;;
66402;SDS011;53212;52.112;5.144;2023-07-31T12:43:28;2.20;;;1.80;;
66402;SDS011;53212;52.112;5.144;2023-07-31T12:45:54;2.80;;;1.90;;
66402;SDS011;53212;52.112;5.144;2023-07-31T12:48:21;2.00;;;1.90;;
66402;SDS011;53212;52.112;5.144;2023-07-31T12:50:47;1.80;;;1.70;;
66402;SDS011;53212;52.112;5.144;2023-07-31T12:53:12;2.60;;;2.00;;
66402;SDS011;53212;52.112;5.144;2023-07-31T12:55:38;1.80;;;1.70;;
66402;SDS011;53212;52.112;5.144;2023-07-31T12:58:03;1.70;;;1.60;;
66402;SDS011;53212;52.112;5.144;2023-07-31T13:00:29;2.30;;;2.10;;
66402;SDS011;53212;52.112;5.144;2023-07-31T13:02:55;2.20;;;2.00;;
66402;SDS011;53212;52.112;5.144;2023-07-31T13:05:20;3.50;;;1.70;;
66402;SDS011;53212;52.112;5.144;2023-07-31T13:07:49;1.60;;;1.50;;
66402;SDS011;53212;52.112;5.144;2023-07-31T13:10:15;2.00;;;1.80;;
66402;SDS011;53212;52.112;5.144;2023-07-31T13:12:40;2.00;;;1.80;;
66402;SDS011;53212;52.112;5.144;2023-07-31T13:15:06;2.30;;;1.70;;
66402;SDS011;53212;52.112;5.144;2023-07-31T13:17:32;1.90;;;1.70;;
66402;SDS011;53212;52.112;5.144;2023-07-31T13:19:58;2.60;;;1.70;;
66402;SDS011;53212;52.112;5.144;2023-07-31T13:22:23;1.70;;;1.50;;
66402;SDS011;53212;52.112;5.144;2023-07-31T13:24:49;1.80;;;1.60;;
66402;SDS011;53212;52.112;5.144;2023-07-31T13:27:15;1.50;;;1.40;;
66402;SDS011;53212;52.112;5.144;2023-07-31T13:29:45;1.40;;;1.30;;
66402;SDS011;53212;52.112;5.144;2023-07-31T13:32:11;1.50;;;1.40;;
66402;SDS011;53212;52.112;5.144;2023-07-31T13:34:37;1.30;;;1.20;;
66402;SDS011;53212;52.112;5.144;2023-07-31T13:37:03;2.30;;;1.10;;
66402;SDS011;53212;52.112;5.144;2023-07-31T13:39:28;0.60;;;0.60;;
66402;SDS011;53212;52.112;5.144;2023-07-31T13:41:54;0.60;;;0.60;;
66402;SDS011;53212;52.112;5.144;2023-07-31T13:44:20;0.70;;;0.70;;
66402;SDS011;53212;52.112;5.144;2023-07-31T13:46:45;1.00;;;0.60;;
66402;SDS011;53212;52.112;5.144;2023-07-31T13:49:10;0.70;;;0.70;;
66402;SDS011;53212;52.112;5.144;2023-07-31T13:51:36;0.80;;;0.80;;
66402;SDS011;53212;52.112;5.144;2023-07-31T13:54:03;1.20;;;1.10;;
66402;SDS011;53212;52.112;5.144;2023-07-31T13:56:28;1.20;;;1.10;;
66402;SDS011;53212;52.112;5.144;2023-07-31T13:58:53;1.80;;;0.80;;
66402;SDS011;53212;52.112;5.144;2023-07-31T14:01:19;0.60;;;0.60;;
66402;SDS011;53212;52.112;5.144;2023-07-31T14:03:44;1.20;;;0.90;;
66402;SDS011;53212;52.112;5.144;2023-07-31T14:06:10;0.90;;;0.90;;
66402;SDS011;53212;52.112;5.144;2023-07-31T14:08:35;1.00;;;1.00;;
66402;SDS011;53212;52.112;5.144;2023-07-31T14:11:01;1.60;;;1.30;;
66402;SDS011;53212;52.112;5.144;2023-07-31T14:13:26;1.00;;;1.00;;
66402;SDS011;53212;52.112;5.144;2023-07-31T14:15:52;1.70;;;1.50;;
66402;SDS011;53212;52.112;5.144;2023-07-31T14:18:18;1.80;;;1.10;;
66402;SDS011;53212;52.112;5.144;2023-07-31T14:20:44;1.20;;;1.10;;
66402;SDS011;53212;52.112;5.144;2023-07-31T14:23:09;2.00;;;0.90;;
66402;SDS011;53212;52.112;5.144;2023-07-31T14:25:35;3.80;;;1.00;;
66402;SDS011;53212;52.112;5.144;2023-07-31T14:28:00;1.30;;;1.00;;
66402;SDS011;53212;52.112;5.144;2023-07-31T14:30:25;1.20;;;1.10;;
66402;SDS011;53212;52.112;5.144;2023-07-31T14:32:51;1.20;;;1.10;;
66402;SDS011;53212;52.112;5.144;2023-07-31T14:35:16;1.00;;;0.90;;
66402;SDS011;53212;52.112;5.144;2023-07-31T14:37:43;1.30;;;1.20;;
66402;SDS011;53212;52.112;5.144;2023-07-31T14:40:10;2.80;;;1.40;;
66402;SDS011;53212;52.112;5.144;2023-07-31T14:42:38;1.40;;;1.30;;
66402;SDS011;53212;52.112;5.144;2023-07-31T14:45:05;1.70;;;1.40;;
66402;SDS011;53212;52.112;5.144;2023-07-31T14:47:32;1.10;;;1.00;;
66402;SDS011;53212;52.112;5.144;2023-07-31T14:49:58;0.90;;;0.90;;